Time;durP1;ratioP1;P1;durP2;ratioP2;P2;SDS_P1;SDS_P2;PMS_P1;PMS_P2;Temp;Humidity;BMP_temperature;BMP_pressure;BME280_temperature;BME280_humidity;BME280_pressure;Samples;Min_cycle;Max_cycle;Signal;HPM_P1;HPM_P2
2022/10/10 00:00:53;;;;;;;7.78;3.05;;;;;;;7.92;100.00;100731.08;1718112;83;21101;-63
2022/10/10 00:03:20;;;;;;;5.53;3.00;;;;;;;7.92;100.00;100735.02;1718348;83;21045;-63
2022/10/10 00:05:47;;;;;;;8.95;3.85;;;;;;;7.90;100.00;100735.48;1718291;83;21081;-63
2022/10/10 00:08:13;;;;;;;6.92;3.25;;;;;;;7.88;100.00;100738.58;1718519;83;21532;-64
2022/10/10 00:10:40;;;;;;;7.10;3.40;;;;;;;7.87;100.00;100742.96;1718253;83;21506;-64
2022/10/10 00:13:08;;;;;;;7.58;3.52;;;;;;;7.85;100.00;100739.49;1718585;83;21069;-64
2022/10/10 00:15:35;;;;;;;5.55;3.30;;;;;;;7.84;100.00;100734.26;1718419;83;21136;-65
2022/10/10 00:18:02;;;;;;;10.80;4.15;;;;;;;7.81;100.00;100737.80;1718370;83;21045;-63
2022/10/10 00:20:31;;;;;;;6.62;2.77;;;;;;;7.81;100.00;100745.67;1718277;83;21085;-64
2022/10/10 00:22:58;;;;;;;7.35;3.60;;;;;;;7.77;100.00;100746.15;1718386;83;21714;-63
2022/10/10 00:25:26;;;;;;;6.12;2.90;;;;;;;7.73;100.00;100738.35;1718634;83;21513;-64
2022/10/10 00:27:52;;;;;;;6.90;3.45;;;;;;;7.70;100.00;100740.58;1718472;83;21096;-63
2022/10/10 00:30:19;;;;;;;3.30;2.72;;;;;;;7.69;100.00;100737.55;1718429;83;21033;-64
2022/10/10 00:32:47;;;;;;;5.25;3.20;;;;;;;7.68;100.00;100739.73;1718509;83;21875;-64
2022/10/10 00:35:15;;;;;;;10.15;3.87;;;;;;;7.68;100.00;100745.43;1718244;83;21043;-63
2022/10/10 00:37:42;;;;;;;8.03;2.65;;;;;;;7.66;100.00;100740.23;1718416;83;21525;-65
2022/10/10 00:40:10;;;;;;;9.48;3.10;;;;;;;7.63;100.00;100741.57;1718480;83;21101;-64
2022/10/10 00:42:36;;;;;;;5.85;2.85;;;;;;;7.63;100.00;100745.95;1691855;83;21114;-64
2022/10/10 00:45:36;;;;;;;8.95;2.90;;;;;;;7.60;100.00;100746.01;1734827;82;22039;-63
2022/10/10 00:48:30;;;;;;;5.08;3.10;;;;;;;7.56;100.00;100747.80;1748511;82;21069;-64
2022/10/10 00:51:05;;;;;;;7.75;3.10;;;;;;;7.55;100.00;100751.32;1748094;82;21093;-64
2022/10/10 00:53:40;;;;;;;8.38;3.02;;;;;;;7.50;100.00;100746.56;1748390;82;21049;-64
2022/10/10 00:56:07;;;;;;;8.00;2.90;;;;;;;7.45;100.00;100751.02;1747896;82;21609;-63
2022/10/10 00:58:35;;;;;;;9.68;3.25;;;;;;;7.44;100.00;100751.46;1748408;81;21129;-62
2022/10/10 01:01:03;;;;;;;11.28;3.12;;;;;;;7.42;100.00;100756.31;1735491;82;21057;-63
2022/10/10 01:03:30;;;;;;;8.18;2.98;;;;;;;7.39;100.00;100755.91;1718607;83;21056;-64
2022/10/10 01:05:57;;;;;;;9.25;2.87;;;;;;;7.35;100.00;100751.59;1718319;82;21108;-63
2022/10/10 01:08:25;;;;;;;8.28;2.70;;;;;;;7.32;100.00;100755.13;1718596;83;21132;-64
2022/10/10 01:11:04;;;;;;;5.92;2.90;;;;;;;7.30;100.00;100755.59;1718402;83;21130;-63
2022/10/10 01:13:52;;;;;;;6.00;3.37;;;;;;;7.27;100.00;100759.57;1718415;83;21081;-63
2022/10/10 01:16:28;;;;;;;9.15;3.47;;;;;;;7.24;100.00;100755.66;1718684;83;21540;-64
2022/10/10 01:19:12;;;;;;;7.25;3.33;;;;;;;7.24;100.00;100750.88;1721957;83;21552;-63
2022/10/10 01:22:07;;;;;;;6.75;3.10;;;;;;;7.19;100.00;100755.31;1725192;83;21541;-63
2022/10/10 01:25:24;;;;;;;10.58;2.95;;;;;;;7.16;100.00;100756.22;1683891;83;21176;-63
2022/10/10 01:28:04;;;;;;;6.80;3.10;;;;;;;7.09;100.00;100760.67;1725862;83;21105;-63
2022/10/10 01:30:31;;;;;;;7.50;3.15;;;;;;;7.06;100.00;100762.45;1724662;83;22040;-64
2022/10/10 01:33:13;;;;;;;7.62;2.83;;;;;;;7.05;100.00;100759.42;1691134;84;21614;-64
2022/10/10 01:35:55;;;;;;;6.75;3.00;;;;;;;7.01;100.00;100765.57;1642630;84;21134;-63
2022/10/10 01:38:38;;;;;;;6.53;2.80;;;;;;;6.97;100.00;100763.87;1690358;84;21591;-64
2022/10/10 01:41:23;;;;;;;8.55;2.83;;;;;;;6.94;100.00;100764.33;1691049;84;21665;-64
2022/10/10 01:43:55;;;;;;;10.68;4.10;;;;;;;6.91;100.00;100768.75;1692362;83;21142;-63
2022/10/10 01:46:21;;;;;;;9.55;3.20;;;;;;;6.87;100.00;100769.66;1720136;83;21555;-64
2022/10/10 01:48:50;;;;;;;7.47;3.30;;;;;;;6.84;100.00;100769.26;1720209;83;21098;-63
2022/10/10 01:51:49;;;;;;;5.10;3.47;;;;;;;6.82;100.00;100772.78;1719722;83;21210;-63
2022/10/10 01:54:36;;;;;;;7.92;2.95;;;;;;;6.79;100.00;100777.61;1719385;83;21107;-64
2022/10/10 01:57:45;;;;;;;4.80;3.10;;;;;;;6.77;100.00;100773.28;1719175;83;21063;-64
2022/10/10 02:00:15;;;;;;;7.60;2.90;;;;;;;6.76;100.00;100768.91;1679450;83;21082;-63
2022/10/10 02:02:59;;;;;;;4.70;2.80;;;;;;;6.69;100.00;100773.34;1719282;83;21099;-64
2022/10/10 02:05:46;;;;;;;5.72;3.25;;;;;;;6.67;100.00;100782.96;1719832;83;21324;-65
2022/10/10 02:08:18;;;;;;;13.20;3.33;;;;;;;6.65;100.00;100785.61;1719254;83;21137;-64
2022/10/10 02:10:50;;;;;;;7.40;3.10;;;;;;;6.64;100.00;100792.16;1719881;83;21110;-64
2022/10/10 02:13:17;;;;;;;4.90;3.15;;;;;;;6.62;100.00;100800.47;1719877;83;22101;-64
2022/10/10 02:15:50;;;;;;;6.33;3.47;;;;;;;6.60;100.00;100797.00;1719866;83;21102;-64
2022/10/10 02:18:19;;;;;;;5.15;2.55;;;;;;;6.59;100.00;100806.61;1718003;83;21222;-63
2022/10/10 02:20:47;;;;;;;6.92;3.45;;;;;;;6.58;100.00;100803.99;1686149;85;21073;-63
2022/10/10 02:23:16;;;;;;;6.35;3.30;;;;;;;6.56;100.00;100804.48;1686428;85;21626;-63
2022/10/10 02:25:43;;;;;;;8.50;3.30;;;;;;;6.54;100.00;100807.09;1686605;85;21066;-64
2022/10/10 02:28:17;;;;;;;5.90;3.33;;;;;;;6.53;100.00;100811.03;1686409;85;21084;-63
2022/10/10 02:30:46;;;;;;;7.53;3.00;;;;;;;6.50;100.00;100812.78;1686639;85;21084;-63
2022/10/10 02:33:22;;;;;;;6.58;2.72;;;;;;;6.50;100.00;100807.55;1686548;85;21129;-64
2022/10/10 02:35:48;;;;;;;6.17;3.02;;;;;;;6.46;100.00;100808.45;1686643;85;21153;-63
2022/10/10 02:38:15;;;;;;;7.33;3.30;;;;;;;6.44;100.00;100812.87;1642681;85;21129;-64
2022/10/10 02:40:43;;;;;;;7.80;3.15;;;;;;;6.41;100.00;100808.95;1664529;85;21129;-64
2022/10/10 02:43:10;;;;;;;8.38;3.17;;;;;;;6.41;100.00;100812.02;1686463;85;21949;-63
2022/10/10 02:45:36;;;;;;;4.87;3.25;;;;;;;6.40;100.00;100816.38;1686859;85;21680;-66
2022/10/10 02:48:03;;;;;;;9.45;3.72;;;;;;;6.41;100.00;100812.02;1686540;85;21576;-63
2022/10/10 02:50:30;;;;;;;7.65;2.95;;;;;;;6.39;100.00;100816.39;1642577;85;21050;-64
2022/10/10 02:52:56;;;;;;;7.50;3.27;;;;;;;6.42;100.00;100818.55;1686612;85;21058;-63
2022/10/10 02:55:23;;;;;;;5.62;3.02;;;;;;;6.41;100.00;100814.18;1686443;85;21207;-63
2022/10/10 02:57:50;;;;;;;8.80;3.40;;;;;;;6.42;100.00;100819.86;1686273;85;21628;-64
2022/10/10 03:00:17;;;;;;;10.20;3.50;;;;;;;6.42;100.00;100822.47;1686310;85;21100;-64
2022/10/10 03:02:45;;;;;;;9.15;3.50;;;;;;;6.42;100.00;100825.09;1686364;85;21077;-63
2022/10/10 03:05:12;;;;;;;7.47;2.72;;;;;;;6.40;100.00;100830.77;1686295;85;21592;-64
2022/10/10 03:07:39;;;;;;;8.93;3.25;;;;;;;6.39;100.00;100819.86;1686736;85;21118;-65
2022/10/10 03:10:08;;;;;;;6.92;3.25;;;;;;;6.38;100.00;100828.61;1686485;85;21077;-64
2022/10/10 03:12:34;;;;;;;10.93;3.58;;;;;;;6.36;100.00;100826.44;1686465;85;21546;-63
2022/10/10 03:15:04;;;;;;;8.25;3.10;;;;;;;6.34;100.00;100821.66;1686727;85;21133;-64
2022/10/10 03:17:30;;;;;;;6.53;3.08;;;;;;;6.34;100.00;100827.34;1686527;85;21026;-63
2022/10/10 03:19:57;;;;;;;7.15;3.62;;;;;;;6.31;100.00;100824.31;1686359;83;21153;-63
2022/10/10 03:22:24;;;;;;;6.08;3.10;;;;;;;6.29;100.00;100829.55;1686665;85;21073;-65
2022/10/10 03:24:51;;;;;;;6.53;3.27;;;;;;;6.28;100.00;100835.67;1686540;85;21652;-64
2022/10/10 03:27:17;;;;;;;8.15;3.00;;;;;;;6.26;100.00;100831.34;1686667;85;21531;-64
2022/10/10 03:29:43;;;;;;;4.62;2.98;;;;;;;6.25;100.00;100834.81;1686497;85;21628;-64
2022/10/10 03:32:10;;;;;;;8.78;3.00;;;;;;;6.25;100.00;100836.13;1686947;85;21566;-63
2022/10/10 03:34:37;;;;;;;10.20;3.20;;;;;;;6.23;100.00;100840.50;1686557;85;21570;-64
2022/10/10 03:37:04;;;;;;;6.35;2.85;;;;;;;6.23;100.00;100849.65;1686653;85;21129;-65
2022/10/10 03:39:30;;;;;;;6.05;2.98;;;;;;;6.21;100.00;100847.06;1686571;85;21051;-64
2022/10/10 03:41:57;;;;;;;4.22;2.62;;;;;;;6.22;100.00;100847.93;1686504;85;21085;-64
2022/10/10 03:44:24;;;;;;;7.67;3.35;;;;;;;6.22;100.00;100850.55;1679573;85;21153;-63
2022/10/10 03:46:51;;;;;;;6.78;2.70;;;;;;;6.22;100.00;100849.23;1658696;86;21105;-62
2022/10/10 03:49:19;;;;;;;5.80;2.80;;;;;;;6.24;100.00;100854.02;1659007;86;21125;-63
2022/10/10 03:51:47;;;;;;;7.10;2.90;;;;;;;6.26;100.00;100852.27;1658712;84;21069;-63
2022/10/10 03:54:14;;;;;;;7.37;3.12;;;;;;;6.26;100.00;100856.19;1659038;86;21065;-64
2022/10/10 03:56:41;;;;;;;11.00;3.40;;;;;;;6.26;100.00;100848.34;1658742;85;21116;-63
2022/10/10 03:59:07;;;;;;;8.00;2.80;;;;;;;6.24;100.00;100851.41;1658706;86;21072;-62
2022/10/10 04:01:34;;;;;;;4.70;2.72;;;;;;;6.21;100.00;100848.38;1658627;86;21041;-64
2022/10/10 04:04:01;;;;;;;7.45;3.15;;;;;;;6.20;100.00;100850.99;1658753;86;21109;-64
2022/10/10 04:06:28;;;;;;;7.80;3.27;;;;;;;6.19;100.00;100853.16;1658666;86;21065;-63
2022/10/10 04:08:55;;;;;;;5.33;3.20;;;;;;;6.16;100.00;100859.73;1659032;84;21278;-64
2022/10/10 04:11:21;;;;;;;9.18;3.67;;;;;;;6.15;100.00;100860.63;1658676;86;21069;-64
2022/10/10 04:13:49;;;;;;;6.25;2.85;;;;;;;6.12;100.00;100863.24;1658939;86;21136;-66
2022/10/10 04:16:16;;;;;;;9.23;3.12;;;;;;;6.11;100.00;100868.06;1658769;86;21073;-65
2022/10/10 04:18:42;;;;;;;6.17;2.80;;;;;;;6.09;100.00;100870.22;1658555;86;21553;-65
2022/10/10 04:21:08;;;;;;;7.65;3.00;;;;;;;6.09;100.00;100870.67;1658492;86;22055;-64
2022/10/10 04:23:36;;;;;;;9.85;3.20;;;;;;;6.08;100.00;100869.81;1658841;86;21120;-64
2022/10/10 04:26:02;;;;;;;13.10;3.60;;;;;;;6.09;100.00;100869.36;1658526;86;21030;-65
2022/10/10 04:28:29;;;;;;;4.87;3.30;;;;;;;6.11;100.00;100873.28;1658859;86;21100;-65
2022/10/10 04:30:56;;;;;;;9.03;3.33;;;;;;;6.13;100.00;100879.38;1658833;86;22254;-65
2022/10/10 04:33:22;;;;;;;7.28;2.80;;;;;;;6.18;100.00;100876.28;1658754;86;21632;-64
2022/10/10 04:35:49;;;;;;;11.40;3.27;;;;;;;6.20;100.00;100879.31;1651473;86;21065;-64
2022/10/10 04:38:17;;;;;;;8.98;3.10;;;;;;;6.25;100.00;100876.66;1658863;86;21045;-64
2022/10/10 04:40:43;;;;;;;8.53;3.33;;;;;;;6.32;100.00;100880.11;1659055;84;21537;-65
2022/10/10 04:43:10;;;;;;;6.37;3.27;;;;;;;6.35;100.00;100875.73;1658823;86;21056;-64
2022/10/10 04:45:38;;;;;;;6.25;3.05;;;;;;;6.39;100.00;100878.73;1680290;85;21640;-64
2022/10/10 04:48:04;;;;;;;6.40;2.80;;;;;;;6.43;100.00;100882.20;1686634;85;22084;-65
2022/10/10 04:50:33;;;;;;;11.90;3.30;;;;;;;6.46;100.00;100889.57;1686483;85;21073;-66
2022/10/10 04:53:00;;;;;;;13.72;3.90;;;;;;;6.53;100.00;100893.01;1686548;85;21105;-65
2022/10/10 04:55:28;;;;;;;5.08;3.15;;;;;;;6.60;100.00;100892.52;1686354;85;21115;-65
2022/10/10 04:57:55;;;;;;;7.35;3.62;;;;;;;6.64;100.00;100894.23;1686377;85;21225;-63
2022/10/10 05:00:21;;;;;;;7.85;3.12;;;;;;;6.70;100.00;100890.27;1686444;85;21065;-64
2022/10/10 05:02:48;;;;;;;5.97;3.42;;;;;;;6.75;100.00;100896.33;1686309;85;21097;-66
2022/10/10 05:05:15;;;;;;;4.58;2.60;;;;;;;6.82;100.00;100894.08;1686221;85;21086;-63
2022/10/10 05:07:41;;;;;;;7.22;2.95;;;;;;;6.90;100.00;100901.42;1686466;84;21640;-64
2022/10/10 05:10:10;;;;;;;9.95;3.67;;;;;;;6.99;100.00;100902.20;1686268;85;21149;-66
2022/10/10 05:12:37;;;;;;;6.20;2.98;;;;;;;7.08;100.00;100904.73;1686368;85;21640;-64
2022/10/10 05:15:05;;;;;;;6.20;2.98;;;;;;;7.16;100.00;100905.98;1665037;85;21688;-64
2022/10/10 05:17:33;;;;;;;5.40;2.98;;;;;;;7.23;100.00;100907.20;1686384;85;21109;-64
2022/10/10 05:20:00;;;;;;;11.88;3.25;;;;;;;7.29;100.00;100900.59;1686147;83;21129;-65
2022/10/10 05:22:26;;;;;;;6.00;2.33;;;;;;;7.38;100.00;100913.14;1686378;85;21207;-64
2022/10/10 05:24:53;;;;;;;5.58;3.05;;;;;;;7.42;100.00;100904.38;1686254;85;22015;-65
2022/10/10 05:27:20;;;;;;;4.80;2.90;;;;;;;7.50;100.00;100908.64;1664952;85;21152;-65
2022/10/10 05:29:47;;;;;;;5.10;2.62;;;;;;;7.57;100.00;100912.06;1686285;85;21063;-65
2022/10/10 05:32:13;;;;;;;3.87;2.33;;;;;;;7.66;100.00;100910.64;1686273;85;21688;-65
2022/10/10 05:34:42;;;;;;;5.53;2.65;;;;;;;7.77;100.00;100915.27;1686372;85;21850;-65
2022/10/10 05:37:08;;;;;;;7.60;2.35;;;;;;;7.91;100.00;100924.72;1686317;85;21034;-65
2022/10/10 05:39:36;;;;;;;5.75;2.50;;;;;;;7.98;100.00;100923.75;1686301;85;21074;-66
2022/10/10 05:42:03;;;;;;;6.62;2.20;;;;;;;8.04;100.00;100922.81;1686274;85;21023;-64
2022/10/10 05:44:30;;;;;;;6.65;2.85;;;;;;;8.19;100.00;100926.54;1677948;85;21518;-64
2022/10/10 05:46:57;;;;;;;8.85;2.92;;;;;;;8.36;100.00;100924.97;1658424;86;21649;-66
2022/10/10 05:49:23;;;;;;;5.42;2.40;;;;;;;8.48;100.00;100927.42;1658563;86;21632;-64
2022/10/10 05:51:50;;;;;;;5.15;2.55;;;;;;;8.60;100.00;100929.88;1658978;86;21089;-64
2022/10/10 05:54:17;;;;;;;11.60;2.92;;;;;;;8.87;100.00;100930.75;1658951;86;21077;-65
2022/10/10 05:56:45;;;;;;;6.05;2.77;;;;;;;9.07;100.00;100934.34;1658787;86;21102;-64
2022/10/10 05:59:12;;;;;;;4.25;2.22;;;;;;;9.25;100.00;100931.38;1658953;85;22152;-64
2022/10/10 06:01:39;;;;;;;4.78;2.62;;;;;;;9.49;100.00;100934.42;1637718;86;21141;-66
2022/10/10 06:04:05;;;;;;;5.80;2.40;;;;;;;9.78;100.00;100933.39;1658551;86;21613;-65
2022/10/10 06:06:32;;;;;;;6.03;2.37;;;;;;;10.28;100.00;100935.41;1658722;85;21081;-65
2022/10/10 06:08:59;;;;;;;5.08;2.30;;;;;;;10.78;100.00;100936.84;1658737;86;21121;-64
2022/10/10 06:11:26;;;;;;;8.13;2.33;;;;;;;11.18;100.00;100936.70;1658632;86;21082;-64
2022/10/10 06:13:56;;;;;;;5.60;2.33;;;;;;;11.34;100.00;100934.48;1658956;86;21090;-65
2022/10/10 06:16:26;;;;;;;7.58;2.20;;;;;;;11.58;100.00;100932.09;1658565;85;21564;-65
2022/10/10 06:18:57;;;;;;;6.72;1.87;;;;;;;12.01;100.00;100940.09;1658982;85;21121;-65
2022/10/10 06:21:24;;;;;;;7.97;2.10;;;;;;;12.42;100.00;100940.13;1665991;84;21116;-64
2022/10/10 06:23:51;;;;;;;7.00;2.10;;;;;;;12.58;100.00;100948.44;1668581;86;21089;-64
2022/10/10 06:51:28;;;;;;;6.85;1.67;;;;;;;15.99;98.50;100940.44;1738220;81;22552;-65
2022/10/10 06:53:56;;;;;;;3.62;1.95;;;;;;;16.27;96.35;100947.11;1741097;82;20993;-65
2022/10/10 06:56:24;;;;;;;5.22;1.80;;;;;;;16.65;95.01;100945.70;1741352;82;21144;-65
2022/10/10 06:58:51;;;;;;;5.30;1.52;;;;;;;16.87;92.71;100949.05;1741043;82;21061;-67
2022/10/10 07:01:19;;;;;;;3.98;1.98;;;;;;;17.08;80.82;100953.75;1740985;82;21101;-65
2022/10/10 07:03:46;;;;;;;4.47;1.90;;;;;;;17.19;70.04;100942.09;1740951;82;21033;-65
2022/10/10 07:06:13;;;;;;;5.00;1.82;;;;;;;17.38;70.27;100948.64;1741206;82;21065;-64
2022/10/10 07:08:40;;;;;;;8.90;2.47;;;;;;;17.76;68.37;100940.43;1741215;82;21925;-66
2022/10/10 07:11:08;;;;;;;8.10;2.60;;;;;;;18.23;66.77;100951.63;1741098;82;21022;-65
2022/10/10 07:13:36;;;;;;;9.20;3.15;;;;;;;18.43;64.16;100947.00;1741165;82;21026;-64
2022/10/10 07:16:03;;;;;;;8.93;3.22;;;;;;;18.74;62.81;100940.73;1741071;81;21085;-65
2022/10/10 07:18:30;;;;;;;7.85;3.85;;;;;;;18.88;61.09;100938.63;1741130;82;21088;-65
2022/10/10 07:20:58;;;;;;;6.40;3.40;;;;;;;18.86;59.98;100943.19;1740812;82;21233;-64
2022/10/10 07:23:25;;;;;;;8.08;3.15;;;;;;;19.08;59.36;100939.64;1741209;82;21037;-64
2022/10/10 07:26:00;;;;;;;7.10;3.47;;;;;;;19.19;58.13;100934.16;1740892;82;22152;-64
2022/10/10 07:28:28;;;;;;;11.30;3.33;;;;;;;19.03;57.74;100936.39;1697489;82;21775;-65
2022/10/10 07:31:03;;;;;;;14.13;3.70;;;;;;;19.23;57.54;100939.21;1741234;82;21096;-65
2022/10/10 07:33:38;;;;;;;7.53;3.50;;;;;;;19.55;55.66;100938.18;1741336;82;21042;-65
2022/10/10 07:36:06;;;;;;;4.12;2.50;;;;;;;19.93;54.85;100925.62;1740898;82;21089;-65
2022/10/10 07:38:34;;;;;;;6.28;2.37;;;;;;;20.25;53.60;100933.77;1741330;82;21112;-65
2022/10/10 07:41:09;;;;;;;8.53;2.62;;;;;;;20.70;53.97;100931.70;1739727;81;21565;-64
2022/10/10 07:43:38;;;;;;;10.08;2.00;;;;;;;21.08;51.75;100937.65;1711785;83;21049;-66
2022/10/10 07:46:05;;;;;;;12.55;2.72;;;;;;;21.31;50.46;100931.20;1694422;83;21330;-66
2022/10/10 07:48:32;;;;;;;7.55;1.72;;;;;;;21.51;49.77;100923.12;1693515;84;21068;-65
2022/10/10 07:50:58;;;;;;;3.70;1.75;;;;;;;21.76;49.28;100921.78;1693131;84;21043;-63
2022/10/10 07:53:25;;;;;;;4.92;1.90;;;;;;;21.71;48.62;100922.56;1692729;84;21064;-65
2022/10/10 07:55:53;;;;;;;3.27;1.50;;;;;;;21.74;46.73;100917.47;1692833;84;21052;-64
2022/10/10 07:58:20;;;;;;;4.70;1.82;;;;;;;21.69;46.88;100924.50;1692844;84;21146;-66
2022/10/10 08:00:46;;;;;;;4.08;1.60;;;;;;;21.67;46.41;100919.76;1692654;84;21084;-64
2022/10/10 08:03:13;;;;;;;3.83;1.90;;;;;;;21.46;46.72;100919.42;1692473;84;21100;-65
2022/10/10 08:05:46;;;;;;;4.25;1.57;;;;;;;21.53;46.84;100919.39;1692637;84;21103;-65
2022/10/10 08:08:14;;;;;;;3.42;1.40;;;;;;;21.90;46.25;100910.06;1665627;84;21534;-64
2022/10/10 08:10:43;;;;;;;2.80;1.50;;;;;;;22.08;45.79;100917.73;1692642;84;21587;-65
2022/10/10 08:13:10;;;;;;;5.72;1.55;;;;;;;22.49;45.06;100912.52;1692785;84;21088;-65
2022/10/10 08:15:39;;;;;;;3.62;1.32;;;;;;;22.96;44.08;100908.04;1692716;84;21072;-65
2022/10/10 08:18:05;;;;;;;6.17;1.40;;;;;;;23.41;43.50;100904.14;1692512;84;21575;-65
2022/10/10 08:20:32;;;;;;;2.77;1.30;;;;;;;23.74;41.54;100907.80;1692833;84;21654;-65
2022/10/10 08:22:59;;;;;;;4.87;1.25;;;;;;;23.73;41.37;100906.11;1692757;84;21254;-65
2022/10/10 08:25:25;;;;;;;5.12;1.27;;;;;;;23.87;41.55;100919.33;1692972;84;21073;-66
2022/10/10 08:27:52;;;;;;;2.50;1.10;;;;;;;23.74;40.62;100915.88;1692749;84;21612;-65
2022/10/10 08:30:18;;;;;;;4.33;1.10;;;;;;;23.60;40.72;100920.55;1692901;84;21619;-65
2022/10/10 08:32:45;;;;;;;5.62;1.22;;;;;;;23.58;40.71;100921.15;1692648;84;21578;-66
2022/10/10 08:35:13;;;;;;;2.92;1.35;;;;;;;23.92;40.78;100918.46;1692791;84;21313;-65
2022/10/10 08:37:40;;;;;;;3.12;1.20;;;;;;;24.13;39.92;100912.32;1692461;84;21080;-66
2022/10/10 08:40:10;;;;;;;3.98;1.20;;;;;;;24.41;38.74;100917.16;1693029;84;21020;-65
2022/10/10 08:42:40;;;;;;;4.20;1.30;;;;;;;24.46;38.75;100914.94;1665903;83;21064;-65
2022/10/10 08:45:14;;;;;;;3.67;1.10;;;;;;;24.46;38.40;100910.05;1676837;83;21049;-66
2022/10/10 08:48:00;;;;;;;4.22;1.10;;;;;;;24.47;38.15;100919.35;1711145;83;21737;-64
2022/10/10 08:50:38;;;;;;;2.65;1.20;;;;;;;24.54;38.30;100910.78;1712621;83;21102;-65
2022/10/10 08:53:16;;;;;;;3.55;1.00;;;;;;;24.63;36.40;100926.16;1715917;83;21069;-64
2022/10/10 08:55:45;;;;;;;3.87;1.32;;;;;;;24.49;36.94;100918.73;1692698;83;21057;-65
2022/10/10 08:58:25;;;;;;;4.05;1.00;;;;;;;24.62;37.25;100916.39;1715971;83;21521;-66
2022/10/10 09:01:19;;;;;;;2.00;0.80;;;;;;;24.70;36.53;100917.93;1716249;83;21588;-64
2022/10/10 09:03:52;;;;;;;2.92;1.10;;;;;;;24.70;36.53;100917.93;1715906;83;21611;-64
2022/10/10 09:06:57;;;;;;;3.08;1.00;;;;;;;24.85;36.71;100916.64;1716268;83;21061;-65
2022/10/10 09:09:45;;;;;;;1.60;0.90;;;;;;;24.78;36.66;100919.50;1716227;83;21073;-66
2022/10/10 09:12:35;;;;;;;4.80;0.85;;;;;;;24.69;35.95;100921.62;1715434;83;21069;-65
2022/10/10 09:15:24;;;;;;;2.62;1.00;;;;;;;24.55;35.35;100928.16;1715970;83;21653;-65
2022/10/10 11:45:14;;;;;;;7.47;4.17;;;;;;;17.94;41.66;100903.08;1838035;76;22116;-91
2022/10/10 11:47:54;;;;;;;7.78;3.50;;;;;;;18.03;41.10;100913.22;1789331;77;20863;-91
2022/10/10 11:50:30;;;;;;;6.90;3.83;;;;;;;18.10;39.64;100894.61;1803205;77;21189;-92
2022/10/10 11:53:20;;;;;;;8.00;2.72;;;;;;;18.36;39.20;100902.48;1793505;77;20994;-91
2022/10/10 11:56:15;;;;;;;4.85;2.17;;;;;;;18.46;39.09;100905.47;1781749;79;20864;-92
2022/10/10 11:58:47;;;;;;;3.60;1.82;;;;;;;18.52;39.36;100903.80;1775451;79;20966;-92
2022/10/10 12:01:34;;;;;;;2.40;1.05;;;;;;;18.73;38.70;100899.01;1771814;80;20878;-93
2022/10/10 12:04:01;;;;;;;2.85;1.20;;;;;;;18.52;38.25;100900.24;1752466;80;21184;-91
2022/10/10 12:06:41;;;;;;;3.37;0.93;;;;;;;18.47;39.46;100903.17;1750254;80;20984;-90
2022/10/10 12:09:33;;;;;;;2.30;1.20;;;;;;;18.53;39.03;100900.64;1779886;80;21049;-91
2022/10/10 12:12:17;;;;;;;2.22;1.10;;;;;;;18.45;37.64;100903.77;1777675;79;21077;-93
2022/10/10 12:14:52;;;;;;;2.58;1.10;;;;;;;18.41;38.63;100905.73;1767441;80;21077;-93
2022/10/10 12:17:23;;;;;;;5.50;1.57;;;;;;;18.44;37.85;100904.70;1764543;80;21077;-93
2022/10/10 12:19:50;;;;;;;3.60;1.22;;;;;;;18.49;37.83;100900.43;1760567;80;21024;-93
2022/10/10 12:22:27;;;;;;;2.87;1.20;;;;;;;18.59;37.79;100909.16;1779666;80;21648;-92
2022/10/10 12:25:35;;;;;;;2.00;1.20;;;;;;;18.74;38.43;100899.86;1779747;80;21198;-92
2022/10/10 12:28:22;;;;;;;4.83;1.20;;;;;;;18.93;37.02;100892.98;1761051;80;21034;-91
2022/10/10 12:31:03;;;;;;;3.67;1.20;;;;;;;18.85;35.67;100902.30;1773198;79;21224;-90
2022/10/10 12:33:36;;;;;;;2.33;1.00;;;;;;;18.71;35.46;100894.72;1766124;81;21029;-93
2022/10/10 12:36:29;;;;;;;2.08;0.90;;;;;;;18.52;36.05;100902.46;1762895;79;20929;-93
2022/10/10 12:39:05;;;;;;;2.58;1.10;;;;;;;18.49;34.73;100893.28;1775443;80;21041;-92
2022/10/10 12:41:55;;;;;;;2.55;0.85;;;;;;;18.45;34.01;100895.28;1749074;79;21083;-91
2022/10/10 12:44:43;;;;;;;2.77;1.00;;;;;;;18.40;33.88;100905.81;1777218;80;21226;-92
2022/10/10 12:47:24;;;;;;;3.08;0.72;;;;;;;18.23;32.67;100904.97;1773216;80;21168;-92
2022/10/10 12:49:57;;;;;;;5.55;1.17;;;;;;;18.05;32.31;100903.34;1776533;79;21121;-92
2022/10/10 12:52:35;;;;;;;2.33;0.90;;;;;;;17.92;32.78;100904.96;1763070;80;21091;-92
2022/10/10 12:55:09;;;;;;;1.82;0.80;;;;;;;17.84;32.74;100907.20;1760303;80;21052;-92
2022/10/10 12:57:42;;;;;;;3.02;0.82;;;;;;;17.68;33.04;100901.34;1767632;80;21284;-92
2022/10/10 13:00:26;;;;;;;4.28;1.30;;;;;;;17.55;33.12;100906.49;1751827;80;21082;-92
2022/10/10 13:03:00;;;;;;;5.75;1.52;;;;;;;17.34;34.19;100915.13;1771995;80;22141;-92
2022/10/10 13:05:35;;;;;;;4.95;1.52;;;;;;;17.33;34.37;100908.09;1769855;79;21095;-90
2022/10/10 13:08:09;;;;;;;4.80;1.20;;;;;;;17.33;35.07;100907.24;1758392;79;21126;-93
2022/10/10 13:10:35;;;;;;;3.50;0.98;;;;;;;17.24;35.06;100905.91;1771066;80;21145;-91
2022/10/10 13:13:18;;;;;;;;;;;;;;;17.15;36.99;100905.06;1761730;80;21050;-93
2022/10/10 13:15:56;;;;;;;4.08;1.07;;;;;;;17.03;36.79;100909.23;1770935;79;26731;-93
2022/10/10 15:24:18;;;;;;;3.33;1.35;;;;;;;10.71;58.78;100952.80;1877558;75;28378;-91
2022/10/10 15:26:44;;;;;;;6.20;4.12;;;;;;;10.79;59.10;100955.27;1780418;78;21541;-91
2022/10/10 15:29:13;;;;;;;3.87;1.72;;;;;;;10.74;60.06;100960.22;1766495;81;21117;-91
2022/10/10 15:31:39;;;;;;;6.42;1.87;;;;;;;10.66;60.45;100957.31;1766839;81;20962;-90
2022/10/10 15:34:07;;;;;;;4.05;1.70;;;;;;;10.66;61.24;100962.59;1766673;81;21281;-90
2022/10/10 15:36:34;;;;;;;5.97;1.47;;;;;;;10.57;61.85;100969.39;1766887;81;21310;-91
2022/10/10 15:39:03;;;;;;;2.30;1.47;;;;;;;10.46;62.07;100967.45;1746368;81;21022;-90
2022/10/10 15:41:31;;;;;;;2.02;1.30;;;;;;;10.36;63.09;100977.80;1767409;81;21075;-90
2022/10/10 15:43:59;;;;;;;2.40;1.65;;;;;;;10.29;62.87;100973.97;1769802;79;21096;-90
2022/10/10 15:46:27;;;;;;;4.35;2.65;;;;;;;10.23;63.27;100975.39;1778079;80;21024;-90
2022/10/10 15:49:01;;;;;;;3.00;1.20;;;;;;;10.16;64.47;100971.16;1809211;79;21069;-90
2022/10/10 15:51:28;;;;;;;9.80;1.90;;;;;;;10.11;64.01;100984.02;1781179;80;21051;-92
2022/10/10 15:53:58;;;;;;;3.80;1.32;;;;;;;10.06;63.95;100976.22;1781325;80;21219;-91
2022/10/10 15:56:25;;;;;;;8.98;1.70;;;;;;;10.04;64.15;100980.64;1780667;80;21066;-93
2022/10/10 15:58:57;;;;;;;8.33;2.40;;;;;;;10.05;64.34;100987.62;1781272;80;20999;-91
2022/10/10 16:01:24;;;;;;;9.33;2.87;;;;;;;10.00;64.65;100986.86;1781589;80;21058;-90
2022/10/10 16:03:50;;;;;;;6.67;2.92;;;;;;;9.86;65.00;100993.27;1782315;80;21179;-89
2022/10/10 16:06:20;;;;;;;5.20;2.25;;;;;;;9.84;65.78;100993.75;1784709;80;21128;-89
2022/10/10 16:08:47;;;;;;;4.35;2.27;;;;;;;9.78;65.66;100991.72;1784127;80;21020;-89
2022/10/10 16:11:15;;;;;;;6.33;2.65;;;;;;;9.72;65.90;100997.95;1781207;80;21110;-92
2022/10/10 16:13:50;;;;;;;5.65;1.98;;;;;;;9.66;66.22;100995.00;1781333;80;21020;-90
2022/10/10 16:16:18;;;;;;;7.00;2.05;;;;;;;9.62;66.72;101000.35;1810324;79;21073;-89
2022/10/10 16:18:46;;;;;;;5.08;1.75;;;;;;;9.59;67.07;101004.34;1810202;79;21280;-91
2022/10/10 16:21:19;;;;;;;4.47;2.17;;;;;;;9.50;68.09;101002.77;1810405;79;21006;-91
2022/10/10 16:23:49;;;;;;;3.77;2.27;;;;;;;9.49;68.71;101002.79;1807630;79;21578;-91
2022/10/10 16:26:20;;;;;;;7.70;2.55;;;;;;;9.42;68.78;101012.55;1799100;79;21022;-92
2022/10/10 16:28:48;;;;;;;2.50;1.95;;;;;;;9.36;68.30;101010.91;1798747;79;20963;-91
2022/10/10 16:31:20;;;;;;;11.88;4.97;;;;;;;9.32;68.65;101011.85;1798708;79;22039;-89
2022/10/10 16:33:49;;;;;;;5.33;3.42;;;;;;;9.32;68.29;101010.54;1839435;77;20923;-90
2022/10/10 16:36:19;;;;;;;8.33;3.72;;;;;;;9.24;69.13;101019.85;1838819;78;20986;-89
2022/10/10 16:38:47;;;;;;;5.40;3.65;;;;;;;9.18;69.12;101017.80;1838355;78;21029;-90
2022/10/10 16:41:21;;;;;;;7.90;4.62;;;;;;;9.15;69.21;101013.89;1839540;77;20986;-90